sensor_id;sensor_type;location;lat;lon;timestamp;temperature;humidity
11304;DHT22;5707;49.588;12.148;2023-01-26T00:01:46;-1.00;99.90
11304;DHT22;5707;49.588;12.148;2023-01-26T00:04:12;-1.00;99.90
11304;DHT22;5707;49.588;12.148;2023-01-26T00:06:37;-1.00;99.90
11304;DHT22;5707;49.588;12.148;2023-01-26T00:09:03;-1.00;99.90
11304;DHT22;5707;49.588;12.148;2023-01-26T00:11:29;-1.00;99.90
11304;DHT22;5707;49.588;12.148;2023-01-26T00:13:56;-1.00;99.90
11304;DHT22;5707;49.588;12.148;2023-01-26T00:16:22;-1.00;99.90
11304;DHT22;5707;49.588;12.148;2023-01-26T00:18:48;-1.00;99.90
11304;DHT22;5707;49.588;12.148;2023-01-26T00:21:17;-1.00;99.90
11304;DHT22;5707;49.588;12.148;2023-01-26T00:23:42;-1.00;99.90
11304;DHT22;5707;49.588;12.148;2023-01-26T00:26:10;-1.00;99.90
11304;DHT22;5707;49.588;12.148;2023-01-26T00:28:37;-1.00;99.90
11304;DHT22;5707;49.588;12.148;2023-01-26T00:31:04;-1.00;99.90
11304;DHT22;5707;49.588;12.148;2023-01-26T00:33:31;-1.00;99.90
11304;DHT22;5707;49.588;12.148;2023-01-26T00:35:57;-1.00;99.90
11304;DHT22;5707;49.588;12.148;2023-01-26T00:38:23;-1.00;99.90
11304;DHT22;5707;49.588;12.148;2023-01-26T00:40:48;-1.00;99.90
11304;DHT22;5707;49.588;12.148;2023-01-26T00:43:14;-1.00;99.90
11304;DHT22;5707;49.588;12.148;2023-01-26T00:45:40;-1.00;99.90
11304;DHT22;5707;49.588;12.148;2023-01-26T00:48:06;-1.00;99.90
11304;DHT22;5707;49.588;12.148;2023-01-26T00:50:32;-1.00;99.90
11304;DHT22;5707;49.588;12.148;2023-01-26T00:52:58;-1.10;99.90
11304;DHT22;5707;49.588;12.148;2023-01-26T00:55:24;-1.10;99.90
11304;DHT22;5707;49.588;12.148;2023-01-26T00:57:57;-1.10;99.90
11304;DHT22;5707;49.588;12.148;2023-01-26T01:00:22;-1.10;99.90
11304;DHT22;5707;49.588;12.148;2023-01-26T01:02:48;-1.10;99.90
11304;DHT22;5707;49.588;12.148;2023-01-26T01:05:14;-1.10;99.90
11304;DHT22;5707;49.588;12.148;2023-01-26T01:07:40;-1.10;99.90
11304;DHT22;5707;49.588;12.148;2023-01-26T01:10:06;-1.10;99.90
11304;DHT22;5707;49.588;12.148;2023-01-26T01:12:32;-1.20;99.90
11304;DHT22;5707;49.588;12.148;2023-01-26T01:14:58;-1.20;99.90
11304;DHT22;5707;49.588;12.148;2023-01-26T01:17:24;-1.20;99.90
11304;DHT22;5707;49.588;12.148;2023-01-26T01:19:49;-1.20;99.90
11304;DHT22;5707;49.588;12.148;2023-01-26T01:22:15;-1.20;99.90
11304;DHT22;5707;49.588;12.148;2023-01-26T01:24:41;-1.20;99.90
11304;DHT22;5707;49.588;12.148;2023-01-26T01:27:06;-1.20;99.90
11304;DHT22;5707;49.588;12.148;2023-01-26T01:29:32;-1.20;99.90
11304;DHT22;5707;49.588;12.148;2023-01-26T01:31:57;-1.20;99.90
11304;DHT22;5707;49.588;12.148;2023-01-26T01:34:23;-1.20;99.90
11304;DHT22;5707;49.588;12.148;2023-01-26T01:36:48;-1.20;99.90
11304;DHT22;5707;49.588;12.148;2023-01-26T01:39:14;-1.20;99.90
11304;DHT22;5707;49.588;12.148;2023-01-26T01:41:40;-1.30;99.90
11304;DHT22;5707;49.588;12.148;2023-01-26T01:44:16;-1.30;99.90
11304;DHT22;5707;49.588;12.148;2023-01-26T01:46:55;-1.30;99.90
11304;DHT22;5707;49.588;12.148;2023-01-26T01:49:43;-1.20;99.90
11304;DHT22;5707;49.588;12.148;2023-01-26T01:52:17;-1.20;99.90
11304;DHT22;5707;49.588;12.148;2023-01-26T01:55:05;-1.20;99.90
11304;DHT22;5707;49.588;12.148;2023-01-26T01:57:36;-1.30;99.90
11304;DHT22;5707;49.588;12.148;2023-01-26T02:00:12;-1.30;99.90
11304;DHT22;5707;49.588;12.148;2023-01-26T02:02:40;-1.30;99.90
11304;DHT22;5707;49.588;12.148;2023-01-26T02:05:23;-1.30;99.90
11304;DHT22;5707;49.588;12.148;2023-01-26T02:07:49;-1.30;99.90
11304;DHT22;5707;49.588;12.148;2023-01-26T02:10:17;-1.30;99.90
11304;DHT22;5707;49.588;12.148;2023-01-26T02:12:45;-1.40;99.90
11304;DHT22;5707;49.588;12.148;2023-01-26T02:15:12;-1.40;99.90
11304;DHT22;5707;49.588;12.148;2023-01-26T02:17:39;-1.40;99.90
11304;DHT22;5707;49.588;12.148;2023-01-26T02:23:21;-1.40;99.90
11304;DHT22;5707;49.588;12.148;2023-01-26T02:28:18;-1.30;99.90
11304;DHT22;5707;49.588;12.148;2023-01-26T02:30:45;-1.30;99.90
11304;DHT22;5707;49.588;12.148;2023-01-26T02:33:21;-1.30;99.90
11304;DHT22;5707;49.588;12.148;2023-01-26T02:35:47;-1.40;99.90
11304;DHT22;5707;49.588;12.148;2023-01-26T02:38:12;-1.40;99.90
11304;DHT22;5707;49.588;12.148;2023-01-26T02:40:55;-1.40;99.90
11304;DHT22;5707;49.588;12.148;2023-01-26T02:43:24;-1.40;99.90
11304;DHT22;5707;49.588;12.148;2023-01-26T02:45:50;-1.40;99.90
11304;DHT22;5707;49.588;12.148;2023-01-26T02:48:16;-1.40;99.90
11304;DHT22;5707;49.588;12.148;2023-01-26T02:51:02;-1.40;99.90
11304;DHT22;5707;49.588;12.148;2023-01-26T02:53:28;-1.40;99.90
11304;DHT22;5707;49.588;12.148;2023-01-26T02:55:53;-1.40;99.90
11304;DHT22;5707;49.588;12.148;2023-01-26T02:58:19;-1.40;99.90
11304;DHT22;5707;49.588;12.148;2023-01-26T03:00:44;-1.40;99.90
11304;DHT22;5707;49.588;12.148;2023-01-26T03:03:15;-1.40;99.90
11304;DHT22;5707;49.588;12.148;2023-01-26T03:05:42;-1.40;99.90
11304;DHT22;5707;49.588;12.148;2023-01-26T03:08:08;-1.40;99.90
11304;DHT22;5707;49.588;12.148;2023-01-26T03:10:33;-1.40;99.90
11304;DHT22;5707;49.588;12.148;2023-01-26T03:12:59;-1.40;99.90
11304;DHT22;5707;49.588;12.148;2023-01-26T03:15:25;-1.40;99.90
11304;DHT22;5707;49.588;12.148;2023-01-26T03:18:18;-1.40;99.90
11304;DHT22;5707;49.588;12.148;2023-01-26T03:21:06;-1.40;99.90
11304;DHT22;5707;49.588;12.148;2023-01-26T03:23:52;-1.30;99.90
11304;DHT22;5707;49.588;12.148;2023-01-26T03:26:36;-1.40;99.90
11304;DHT22;5707;49.588;12.148;2023-01-26T03:29:22;-1.40;99.90
11304;DHT22;5707;49.588;12.148;2023-01-26T03:31:47;-1.40;99.90
11304;DHT22;5707;49.588;12.148;2023-01-26T03:34:14;-1.40;99.90
11304;DHT22;5707;49.588;12.148;2023-01-26T03:36:39;-1.40;99.90
11304;DHT22;5707;49.588;12.148;2023-01-26T03:39:05;-1.40;99.90
11304;DHT22;5707;49.588;12.148;2023-01-26T03:41:30;-1.40;99.90
11304;DHT22;5707;49.588;12.148;2023-01-26T03:44:15;-1.50;99.90
11304;DHT22;5707;49.588;12.148;2023-01-26T03:46:59;-1.40;99.90
11304;DHT22;5707;49.588;12.148;2023-01-26T03:49:44;-1.40;99.90
11304;DHT22;5707;49.588;12.148;2023-01-26T03:52:31;-1.40;99.90
11304;DHT22;5707;49.588;12.148;2023-01-26T03:55:15;-1.40;99.90
11304;DHT22;5707;49.588;12.148;2023-01-26T03:57:59;-1.50;99.90
11304;DHT22;5707;49.588;12.148;2023-01-26T04:00:24;-1.50;99.90
11304;DHT22;5707;49.588;12.148;2023-01-26T04:02:50;-1.50;99.90
11304;DHT22;5707;49.588;12.148;2023-01-26T04:05:34;-1.50;99.90
11304;DHT22;5707;49.588;12.148;2023-01-26T04:08:18;-1.50;99.90
11304;DHT22;5707;49.588;12.148;2023-01-26T04:10:52;-1.50;99.90
11304;DHT22;5707;49.588;12.148;2023-01-26T04:13:19;-1.50;99.90
11304;DHT22;5707;49.588;12.148;2023-01-26T04:16:04;-1.40;99.90
11304;DHT22;5707;49.588;12.148;2023-01-26T04:18:49;-1.40;99.90
11304;DHT22;5707;49.588;12.148;2023-01-26T04:21:34;-1.40;99.90
11304;DHT22;5707;49.588;12.148;2023-01-26T04:24:01;-1.40;99.90
11304;DHT22;5707;49.588;12.148;2023-01-26T04:26:30;-1.40;99.90
11304;DHT22;5707;49.588;12.148;2023-01-26T04:29:07;-1.40;99.90
11304;DHT22;5707;49.588;12.148;2023-01-26T04:31:33;-1.40;99.90
11304;DHT22;5707;49.588;12.148;2023-01-26T04:34:03;-1.30;99.90
11304;DHT22;5707;49.588;12.148;2023-01-26T04:36:29;-1.30;99.90
11304;DHT22;5707;49.588;12.148;2023-01-26T04:38:55;-1.30;99.90
11304;DHT22;5707;49.588;12.148;2023-01-26T04:41:21;-1.30;99.90
11304;DHT22;5707;49.588;12.148;2023-01-26T04:43:46;-1.30;99.90
11304;DHT22;5707;49.588;12.148;2023-01-26T04:46:12;-1.40;99.90
11304;DHT22;5707;49.588;12.148;2023-01-26T04:48:38;-1.40;99.90
11304;DHT22;5707;49.588;12.148;2023-01-26T04:51:06;-1.40;99.90
11304;DHT22;5707;49.588;12.148;2023-01-26T04:53:32;-1.40;99.90
11304;DHT22;5707;49.588;12.148;2023-01-26T04:55:58;-1.40;99.90
11304;DHT22;5707;49.588;12.148;2023-01-26T04:58:24;-1.40;99.90
11304;DHT22;5707;49.588;12.148;2023-01-26T05:00:54;-1.40;99.90
11304;DHT22;5707;49.588;12.148;2023-01-26T05:03:21;-1.40;99.90
11304;DHT22;5707;49.588;12.148;2023-01-26T05:05:48;-1.40;99.90
11304;DHT22;5707;49.588;12.148;2023-01-26T05:08:18;-1.40;99.90
11304;DHT22;5707;49.588;12.148;2023-01-26T05:10:44;-1.40;99.90
11304;DHT22;5707;49.588;12.148;2023-01-26T05:13:10;-1.40;99.90
11304;DHT22;5707;49.588;12.148;2023-01-26T05:15:35;-1.40;99.90
11304;DHT22;5707;49.588;12.148;2023-01-26T05:18:02;-1.40;99.90
11304;DHT22;5707;49.588;12.148;2023-01-26T05:20:27;-1.40;99.90
11304;DHT22;5707;49.588;12.148;2023-01-26T05:22:53;-1.40;99.90
11304;DHT22;5707;49.588;12.148;2023-01-26T05:25:19;-1.40;99.90
11304;DHT22;5707;49.588;12.148;2023-01-26T05:27:45;-1.30;99.90
11304;DHT22;5707;49.588;12.148;2023-01-26T05:30:12;-1.30;99.90
11304;DHT22;5707;49.588;12.148;2023-01-26T05:32:38;-1.30;99.90
11304;DHT22;5707;49.588;12.148;2023-01-26T05:35:04;-1.30;99.90
11304;DHT22;5707;49.588;12.148;2023-01-26T05:37:31;-1.30;99.90
11304;DHT22;5707;49.588;12.148;2023-01-26T05:39:56;-1.30;99.90
11304;DHT22;5707;49.588;12.148;2023-01-26T05:42:23;-1.30;99.90
11304;DHT22;5707;49.588;12.148;2023-01-26T05:44:48;-1.30;99.90
11304;DHT22;5707;49.588;12.148;2023-01-26T05:47:14;-1.30;99.90
11304;DHT22;5707;49.588;12.148;2023-01-26T05:49:40;-1.30;99.90
11304;DHT22;5707;49.588;12.148;2023-01-26T05:52:14;-1.30;99.90
11304;DHT22;5707;49.588;12.148;2023-01-26T05:54:40;-1.30;99.90
11304;DHT22;5707;49.588;12.148;2023-01-26T05:57:07;-1.30;99.90
11304;DHT22;5707;49.588;12.148;2023-01-26T05:59:32;-1.30;99.90
11304;DHT22;5707;49.588;12.148;2023-01-26T06:01:58;-1.30;99.90
11304;DHT22;5707;49.588;12.148;2023-01-26T06:04:24;-1.30;99.90
11304;DHT22;5707;49.588;12.148;2023-01-26T06:06:54;-1.30;99.90
11304;DHT22;5707;49.588;12.148;2023-01-26T06:09:21;-1.30;99.90
11304;DHT22;5707;49.588;12.148;2023-01-26T06:11:46;-1.30;99.90
11304;DHT22;5707;49.588;12.148;2023-01-26T06:14:12;-1.30;99.90
11304;DHT22;5707;49.588;12.148;2023-01-26T06:16:38;-1.30;99.90
11304;DHT22;5707;49.588;12.148;2023-01-26T06:19:04;-1.30;99.90
11304;DHT22;5707;49.588;12.148;2023-01-26T06:21:31;-1.30;99.90
11304;DHT22;5707;49.588;12.148;2023-01-26T06:23:57;-1.30;99.90
11304;DHT22;5707;49.588;12.148;2023-01-26T06:26:23;-1.30;99.90
11304;DHT22;5707;49.588;12.148;2023-01-26T06:28:49;-1.30;99.90
11304;DHT22;5707;49.588;12.148;2023-01-26T06:31:15;-1.30;99.90
11304;DHT22;5707;49.588;12.148;2023-01-26T06:33:41;-1.30;99.90
11304;DHT22;5707;49.588;12.148;2023-01-26T06:36:11;-1.30;99.90
11304;DHT22;5707;49.588;12.148;2023-01-26T06:38:38;-1.30;99.90
11304;DHT22;5707;49.588;12.148;2023-01-26T06:41:05;-1.30;99.90
11304;DHT22;5707;49.588;12.148;2023-01-26T06:43:32;-1.30;99.90
11304;DHT22;5707;49.588;12.148;2023-01-26T06:45:59;-1.30;99.90
11304;DHT22;5707;49.588;12.148;2023-01-26T06:48:26;-1.30;99.90
11304;DHT22;5707;49.588;12.148;2023-01-26T06:50:57;-1.30;99.90
11304;DHT22;5707;49.588;12.148;2023-01-26T06:53:33;-1.30;99.90
11304;DHT22;5707;49.588;12.148;2023-01-26T06:56:01;-1.30;99.90
11304;DHT22;5707;49.588;12.148;2023-01-26T06:58:26;-1.30;99.90
11304;DHT22;5707;49.588;12.148;2023-01-26T07:00:53;-1.30;99.90
11304;DHT22;5707;49.588;12.148;2023-01-26T07:03:20;-1.30;99.90
11304;DHT22;5707;49.588;12.148;2023-01-26T07:05:45;-1.30;99.90
11304;DHT22;5707;49.588;12.148;2023-01-26T07:08:11;-1.30;99.90
11304;DHT22;5707;49.588;12.148;2023-01-26T07:10:37;-1.30;99.90
11304;DHT22;5707;49.588;12.148;2023-01-26T07:13:04;-1.30;99.90
11304;DHT22;5707;49.588;12.148;2023-01-26T07:15:30;-1.20;99.90
11304;DHT22;5707;49.588;12.148;2023-01-26T07:17:56;-1.20;99.90
11304;DHT22;5707;49.588;12.148;2023-01-26T07:20:22;-1.20;99.90
11304;DHT22;5707;49.588;12.148;2023-01-26T07:22:49;-1.20;99.90
11304;DHT22;5707;49.588;12.148;2023-01-26T07:25:15;-1.20;99.90
11304;DHT22;5707;49.588;12.148;2023-01-26T07:27:40;-1.20;99.90
11304;DHT22;5707;49.588;12.148;2023-01-26T07:30:07;-1.20;99.90
11304;DHT22;5707;49.588;12.148;2023-01-26T07:32:33;-1.20;99.90
11304;DHT22;5707;49.588;12.148;2023-01-26T07:34:58;-1.20;99.90
11304;DHT22;5707;49.588;12.148;2023-01-26T07:37:27;-1.20;99.90
11304;DHT22;5707;49.588;12.148;2023-01-26T07:39:53;-1.10;99.90
11304;DHT22;5707;49.588;12.148;2023-01-26T07:42:19;-1.10;99.90
11304;DHT22;5707;49.588;12.148;2023-01-26T07:44:44;-1.10;99.90
11304;DHT22;5707;49.588;12.148;2023-01-26T07:47:10;-1.00;99.90
11304;DHT22;5707;49.588;12.148;2023-01-26T07:49:36;-1.00;99.90
11304;DHT22;5707;49.588;12.148;2023-01-26T07:52:01;-1.00;99.90
11304;DHT22;5707;49.588;12.148;2023-01-26T07:54:27;-1.00;99.90
11304;DHT22;5707;49.588;12.148;2023-01-26T07:56:53;-1.00;99.90
11304;DHT22;5707;49.588;12.148;2023-01-26T07:59:20;-1.00;99.90
11304;DHT22;5707;49.588;12.148;2023-01-26T08:01:48;-0.90;99.90
11304;DHT22;5707;49.588;12.148;2023-01-26T08:04:14;-0.90;99.90
11304;DHT22;5707;49.588;12.148;2023-01-26T08:06:40;-0.90;99.90
11304;DHT22;5707;49.588;12.148;2023-01-26T08:09:05;-0.80;99.90
11304;DHT22;5707;49.588;12.148;2023-01-26T08:11:31;-0.80;99.90
11304;DHT22;5707;49.588;12.148;2023-01-26T08:13:56;-0.80;99.90
11304;DHT22;5707;49.588;12.148;2023-01-26T08:16:22;-0.80;99.90
11304;DHT22;5707;49.588;12.148;2023-01-26T08:18:48;-0.70;99.90
11304;DHT22;5707;49.588;12.148;2023-01-26T08:21:15;-0.70;99.90
11304;DHT22;5707;49.588;12.148;2023-01-26T08:23:42;-0.70;99.90
11304;DHT22;5707;49.588;12.148;2023-01-26T08:26:10;-0.60;99.90
11304;DHT22;5707;49.588;12.148;2023-01-26T08:28:36;-0.60;99.90
11304;DHT22;5707;49.588;12.148;2023-01-26T08:31:06;-0.60;99.90
11304;DHT22;5707;49.588;12.148;2023-01-26T08:33:32;-0.60;99.90
11304;DHT22;5707;49.588;12.148;2023-01-26T08:36:03;-0.60;99.90
11304;DHT22;5707;49.588;12.148;2023-01-26T08:38:30;-0.60;99.90
11304;DHT22;5707;49.588;12.148;2023-01-26T08:40:57;-0.60;99.90
11304;DHT22;5707;49.588;12.148;2023-01-26T08:43:22;-0.60;99.90
11304;DHT22;5707;49.588;12.148;2023-01-26T08:45:48;-0.60;99.90
11304;DHT22;5707;49.588;12.148;2023-01-26T08:48:14;-0.50;99.90
11304;DHT22;5707;49.588;12.148;2023-01-26T08:50:39;-0.50;99.90
11304;DHT22;5707;49.588;12.148;2023-01-26T08:53:05;-0.50;99.90
11304;DHT22;5707;49.588;12.148;2023-01-26T08:55:30;-0.50;99.90
11304;DHT22;5707;49.588;12.148;2023-01-26T08:57:57;-0.50;99.90
11304;DHT22;5707;49.588;12.148;2023-01-26T09:00:23;-0.50;99.90
11304;DHT22;5707;49.588;12.148;2023-01-26T09:02:50;-0.40;99.90
11304;DHT22;5707;49.588;12.148;2023-01-26T09:05:15;-0.40;99.90
11304;DHT22;5707;49.588;12.148;2023-01-26T09:07:41;-0.40;99.90
11304;DHT22;5707;49.588;12.148;2023-01-26T09:10:07;-0.40;99.90
11304;DHT22;5707;49.588;12.148;2023-01-26T09:12:33;-0.40;99.90
11304;DHT22;5707;49.588;12.148;2023-01-26T09:14:58;-0.40;99.90
11304;DHT22;5707;49.588;12.148;2023-01-26T09:17:24;-0.40;99.90
11304;DHT22;5707;49.588;12.148;2023-01-26T09:19:49;-0.50;99.90
11304;DHT22;5707;49.588;12.148;2023-01-26T09:22:15;-0.60;99.90
11304;DHT22;5707;49.588;12.148;2023-01-26T09:24:41;-0.70;99.90
11304;DHT22;5707;49.588;12.148;2023-01-26T09:27:06;-0.60;99.90
11304;DHT22;5707;49.588;12.148;2023-01-26T09:29:33;-0.50;99.90
11304;DHT22;5707;49.588;12.148;2023-01-26T09:31:58;-0.50;99.90
11304;DHT22;5707;49.588;12.148;2023-01-26T09:34:24;-0.40;99.90
11304;DHT22;5707;49.588;12.148;2023-01-26T09:36:49;-0.30;99.90
11304;DHT22;5707;49.588;12.148;2023-01-26T09:39:15;-0.20;99.90
11304;DHT22;5707;49.588;12.148;2023-01-26T09:42:22;-0.20;99.90
11304;DHT22;5707;49.588;12.148;2023-01-26T09:47:35;-0.10;99.90
11304;DHT22;5707;49.588;12.148;2023-01-26T09:50:13;-0.10;99.90
11304;DHT22;5707;49.588;12.148;2023-01-26T09:55:18;-0.10;99.90
11304;DHT22;5707;49.588;12.148;2023-01-26T09:57:50;0.00;99.90
11304;DHT22;5707;49.588;12.148;2023-01-26T10:00:42;0.00;99.90
11304;DHT22;5707;49.588;12.148;2023-01-26T10:03:27;0.00;99.90
11304;DHT22;5707;49.588;12.148;2023-01-26T10:08:42;0.00;99.90
11304;DHT22;5707;49.588;12.148;2023-01-26T10:13:55;-0.10;99.90
11304;DHT22;5707;49.588;12.148;2023-01-26T10:16:21;-0.10;99.90
11304;DHT22;5707;49.588;12.148;2023-01-26T10:18:53;0.00;99.90
11304;DHT22;5707;49.588;12.148;2023-01-26T10:21:22;0.00;99.90
11304;DHT22;5707;49.588;12.148;2023-01-26T10:23:51;0.10;99.90
11304;DHT22;5707;49.588;12.148;2023-01-26T10:26:21;0.10;99.90
11304;DHT22;5707;49.588;12.148;2023-01-26T10:28:49;0.10;99.90
11304;DHT22;5707;49.588;12.148;2023-01-26T10:31:18;0.10;99.90
11304;DHT22;5707;49.588;12.148;2023-01-26T10:33:55;0.00;99.90
11304;DHT22;5707;49.588;12.148;2023-01-26T10:36:21;-0.10;99.90
11304;DHT22;5707;49.588;12.148;2023-01-26T10:38:48;-0.20;99.90
11304;DHT22;5707;49.588;12.148;2023-01-26T10:44:03;-0.20;99.90
11304;DHT22;5707;49.588;12.148;2023-01-26T10:46:43;-0.30;99.90
11304;DHT22;5707;49.588;12.148;2023-01-26T10:51:38;-0.30;99.90
11304;DHT22;5707;49.588;12.148;2023-01-26T10:56:52;-0.20;99.90
11304;DHT22;5707;49.588;12.148;2023-01-26T11:02:02;-0.40;99.90
11304;DHT22;5707;49.588;12.148;2023-01-26T11:04:29;-0.50;99.90
11304;DHT22;5707;49.588;12.148;2023-01-26T11:06:54;-0.40;99.90
11304;DHT22;5707;49.588;12.148;2023-01-26T11:09:26;-0.40;99.90
11304;DHT22;5707;49.588;12.148;2023-01-26T11:12:03;-0.30;99.90
11304;DHT22;5707;49.588;12.148;2023-01-26T11:14:31;-0.20;99.90
11304;DHT22;5707;49.588;12.148;2023-01-26T11:17:13;-0.10;99.90
11304;DHT22;5707;49.588;12.148;2023-01-26T11:28:06;0.10;99.90
11304;DHT22;5707;49.588;12.148;2023-01-26T11:30:55;0.10;99.90
11304;DHT22;5707;49.588;12.148;2023-01-26T11:36:31;-0.10;99.90
11304;DHT22;5707;49.588;12.148;2023-01-26T11:39:03;-0.20;99.90
11304;DHT22;5707;49.588;12.148;2023-01-26T11:41:44;-0.30;99.90
11304;DHT22;5707;49.588;12.148;2023-01-26T11:44:54;-0.50;99.90
11304;DHT22;5707;49.588;12.148;2023-01-26T11:50:36;-0.60;99.90
11304;DHT22;5707;49.588;12.148;2023-01-26T11:56:23;-0.50;99.90
11304;DHT22;5707;49.588;12.148;2023-01-26T11:58:56;-0.50;99.90
11304;DHT22;5707;49.588;12.148;2023-01-26T12:01:28;-0.40;99.90
11304;DHT22;5707;49.588;12.148;2023-01-26T12:03:55;-0.30;99.90
11304;DHT22;5707;49.588;12.148;2023-01-26T12:06:36;-0.20;99.90
11304;DHT22;5707;49.588;12.148;2023-01-26T12:09:30;-0.20;99.90
11304;DHT22;5707;49.588;12.148;2023-01-26T12:12:18;-0.20;99.90
11304;DHT22;5707;49.588;12.148;2023-01-26T12:17:35;-0.30;99.90
11304;DHT22;5707;49.588;12.148;2023-01-26T12:23:09;-0.20;99.90
11304;DHT22;5707;49.588;12.148;2023-01-26T12:25:42;-0.10;99.90
11304;DHT22;5707;49.588;12.148;2023-01-26T12:28:15;-0.10;99.90
11304;DHT22;5707;49.588;12.148;2023-01-26T12:30:46;-0.10;99.90
11304;DHT22;5707;49.588;12.148;2023-01-26T12:33:14;-0.10;99.90
11304;DHT22;5707;49.588;12.148;2023-01-26T12:35:44;-0.10;99.90
11304;DHT22;5707;49.588;12.148;2023-01-26T12:38:22;-0.10;99.90
11304;DHT22;5707;49.588;12.148;2023-01-26T12:44:02;-0.20;99.90
11304;DHT22;5707;49.588;12.148;2023-01-26T12:46:35;-0.20;99.90
11304;DHT22;5707;49.588;12.148;2023-01-26T12:49:12;-0.20;99.90
11304;DHT22;5707;49.588;12.148;2023-01-26T12:51:44;-0.20;99.90
11304;DHT22;5707;49.588;12.148;2023-01-26T12:57:08;-0.20;99.90
11304;DHT22;5707;49.588;12.148;2023-01-26T12:59:37;-0.30;99.90
11304;DHT22;5707;49.588;12.148;2023-01-26T13:04:44;-0.20;99.90
11304;DHT22;5707;49.588;12.148;2023-01-26T13:07:36;-0.30;99.90
11304;DHT22;5707;49.588;12.148;2023-01-26T13:12:55;-0.30;99.90
11304;DHT22;5707;49.588;12.148;2023-01-26T13:15:32;-0.30;99.90
11304;DHT22;5707;49.588;12.148;2023-01-26T13:18:00;-0.30;99.90
11304;DHT22;5707;49.588;12.148;2023-01-26T13:26:12;-0.30;99.90
11304;DHT22;5707;49.588;12.148;2023-01-26T13:28:39;-0.40;99.90
11304;DHT22;5707;49.588;12.148;2023-01-26T13:31:06;-0.40;99.90
11304;DHT22;5707;49.588;12.148;2023-01-26T13:33:33;-0.50;99.90
11304;DHT22;5707;49.588;12.148;2023-01-26T13:36:02;-0.50;99.90
11304;DHT22;5707;49.588;12.148;2023-01-26T13:38:33;-0.60;99.90
11304;DHT22;5707;49.588;12.148;2023-01-26T13:41:00;-0.60;99.90
11304;DHT22;5707;49.588;12.148;2023-01-26T13:43:35;-0.60;99.90
11304;DHT22;5707;49.588;12.148;2023-01-26T13:46:51;-0.60;99.90
11304;DHT22;5707;49.588;12.148;2023-01-26T13:52:02;-0.70;99.90
11304;DHT22;5707;49.588;12.148;2023-01-26T13:54:27;-0.70;99.90
11304;DHT22;5707;49.588;12.148;2023-01-26T13:57:04;-0.80;99.90
11304;DHT22;5707;49.588;12.148;2023-01-26T13:59:31;-0.90;99.90
11304;DHT22;5707;49.588;12.148;2023-01-26T14:01:57;-0.90;99.90
11304;DHT22;5707;49.588;12.148;2023-01-26T14:04:31;-0.90;99.90
11304;DHT22;5707;49.588;12.148;2023-01-26T14:07:13;-0.90;99.90
11304;DHT22;5707;49.588;12.148;2023-01-26T14:09:47;-0.80;99.90
11304;DHT22;5707;49.588;12.148;2023-01-26T14:12:26;-0.80;99.90
11304;DHT22;5707;49.588;12.148;2023-01-26T14:14:55;-0.70;99.90
11304;DHT22;5707;49.588;12.148;2023-01-26T14:17:27;-0.80;99.90
11304;DHT22;5707;49.588;12.148;2023-01-26T14:19:53;-0.80;99.90
11304;DHT22;5707;49.588;12.148;2023-01-26T14:22:19;-0.80;99.90
11304;DHT22;5707;49.588;12.148;2023-01-26T14:24:50;-0.80;99.90
11304;DHT22;5707;49.588;12.148;2023-01-26T14:27:38;-0.80;99.90
11304;DHT22;5707;49.588;12.148;2023-01-26T14:35:36;-0.80;99.90
11304;DHT22;5707;49.588;12.148;2023-01-26T14:38:14;-0.80;99.90
11304;DHT22;5707;49.588;12.148;2023-01-26T14:40:51;-0.80;99.90
11304;DHT22;5707;49.588;12.148;2023-01-26T14:43:18;-0.80;99.90
11304;DHT22;5707;49.588;12.148;2023-01-26T14:48:24;-0.80;99.90
11304;DHT22;5707;49.588;12.148;2023-01-26T14:50:51;-0.80;99.90
11304;DHT22;5707;49.588;12.148;2023-01-26T14:53:20;-0.80;99.90
11304;DHT22;5707;49.588;12.148;2023-01-26T14:55:47;-0.90;99.90
11304;DHT22;5707;49.588;12.148;2023-01-26T15:00:48;-0.90;99.90
11304;DHT22;5707;49.588;12.148;2023-01-26T15:03:23;-0.90;99.90
11304;DHT22;5707;49.588;12.148;2023-01-26T15:06:15;-0.90;99.90
11304;DHT22;5707;49.588;12.148;2023-01-26T15:08:53;-0.90;99.90
11304;DHT22;5707;49.588;12.148;2023-01-26T15:11:36;-0.90;99.90
11304;DHT22;5707;49.588;12.148;2023-01-26T15:16:56;-0.90;99.90
11304;DHT22;5707;49.588;12.148;2023-01-26T15:19:23;-0.90;99.90
11304;DHT22;5707;49.588;12.148;2023-01-26T15:21:49;-0.90;99.90
11304;DHT22;5707;49.588;12.148;2023-01-26T15:24:14;-0.90;99.90
11304;DHT22;5707;49.588;12.148;2023-01-26T15:26:41;-0.90;99.90
11304;DHT22;5707;49.588;12.148;2023-01-26T15:29:24;-0.90;99.90
11304;DHT22;5707;49.588;12.148;2023-01-26T15:31:53;-0.90;99.90
11304;DHT22;5707;49.588;12.148;2023-01-26T15:34:38;-1.00;99.90
11304;DHT22;5707;49.588;12.148;2023-01-26T15:37:26;-1.00;99.90
11304;DHT22;5707;49.588;12.148;2023-01-26T15:39:52;-1.00;99.90
11304;DHT22;5707;49.588;12.148;2023-01-26T15:42:23;-1.00;99.90
11304;DHT22;5707;49.588;12.148;2023-01-26T15:44:49;-1.00;99.90
11304;DHT22;5707;49.588;12.148;2023-01-26T15:47:14;-1.10;99.90
11304;DHT22;5707;49.588;12.148;2023-01-26T15:49:40;-1.10;99.90
11304;DHT22;5707;49.588;12.148;2023-01-26T15:52:18;-1.10;99.90
11304;DHT22;5707;49.588;12.148;2023-01-26T15:54:43;-1.10;99.90
11304;DHT22;5707;49.588;12.148;2023-01-26T15:57:10;-1.10;99.90
11304;DHT22;5707;49.588;12.148;2023-01-26T15:59:36;-1.10;99.90
11304;DHT22;5707;49.588;12.148;2023-01-26T16:02:03;-1.10;99.90
11304;DHT22;5707;49.588;12.148;2023-01-26T16:04:29;-1.10;99.90
11304;DHT22;5707;49.588;12.148;2023-01-26T16:06:54;-1.20;99.90
11304;DHT22;5707;49.588;12.148;2023-01-26T16:09:20;-1.20;99.90
11304;DHT22;5707;49.588;12.148;2023-01-26T16:11:49;-1.20;99.90
11304;DHT22;5707;49.588;12.148;2023-01-26T16:14:15;-1.20;99.90
11304;DHT22;5707;49.588;12.148;2023-01-26T16:16:41;-1.20;99.90
11304;DHT22;5707;49.588;12.148;2023-01-26T16:19:06;-1.20;99.90
11304;DHT22;5707;49.588;12.148;2023-01-26T16:21:34;-1.30;99.90
11304;DHT22;5707;49.588;12.148;2023-01-26T16:24:02;-1.20;99.90
11304;DHT22;5707;49.588;12.148;2023-01-26T16:26:28;-1.30;99.90
11304;DHT22;5707;49.588;12.148;2023-01-26T16:28:54;-1.20;99.90
11304;DHT22;5707;49.588;12.148;2023-01-26T16:31:26;-1.20;99.90
11304;DHT22;5707;49.588;12.148;2023-01-26T16:33:52;-1.20;99.90
11304;DHT22;5707;49.588;12.148;2023-01-26T16:36:19;-1.20;99.90
11304;DHT22;5707;49.588;12.148;2023-01-26T16:38:45;-1.20;99.90
11304;DHT22;5707;49.588;12.148;2023-01-26T16:41:21;-1.20;99.90
11304;DHT22;5707;49.588;12.148;2023-01-26T16:43:48;-1.30;99.90
11304;DHT22;5707;49.588;12.148;2023-01-26T16:46:14;-1.30;99.90
11304;DHT22;5707;49.588;12.148;2023-01-26T16:48:39;-1.30;99.90
11304;DHT22;5707;49.588;12.148;2023-01-26T16:53:47;-1.30;99.90
11304;DHT22;5707;49.588;12.148;2023-01-26T16:56:15;-1.30;99.90
11304;DHT22;5707;49.588;12.148;2023-01-26T16:58:41;-1.30;99.90
11304;DHT22;5707;49.588;12.148;2023-01-26T17:01:20;-1.30;99.90
11304;DHT22;5707;49.588;12.148;2023-01-26T17:03:46;-1.30;99.90
11304;DHT22;5707;49.588;12.148;2023-01-26T17:06:12;-1.30;99.90
11304;DHT22;5707;49.588;12.148;2023-01-26T17:08:39;-1.30;99.90
11304;DHT22;5707;49.588;12.148;2023-01-26T17:11:05;-1.30;99.90
11304;DHT22;5707;49.588;12.148;2023-01-26T17:13:31;-1.30;99.90
11304;DHT22;5707;49.588;12.148;2023-01-26T17:15:57;-1.30;99.90